sensor_id;sensor_type;location;lat;lon;timestamp;P1;durP1;ratioP1;P2;durP2;ratioP2
15358;SDS011;7779;49.596;11.070;2022-12-18T00:01:18;11.70;;;6.93;;
15358;SDS011;7779;49.596;11.070;2022-12-18T00:03:48;12.60;;;6.50;;
15358;SDS011;7779;49.596;11.070;2022-12-18T00:06:14;13.77;;;7.73;;
15358;SDS011;7779;49.596;11.070;2022-12-18T00:08:44;13.20;;;7.13;;
15358;SDS011;7779;49.596;11.070;2022-12-18T00:11:12;10.53;;;6.77;;
15358;SDS011;7779;49.596;11.070;2022-12-18T00:13:41;15.70;;;8.37;;
15358;SDS011;7779;49.596;11.070;2022-12-18T00:16:08;13.03;;;7.23;;
15358;SDS011;7779;49.596;11.070;2022-12-18T00:18:37;12.20;;;7.90;;
15358;SDS011;7779;49.596;11.070;2022-12-18T00:21:05;13.17;;;7.00;;
15358;SDS011;7779;49.596;11.070;2022-12-18T00:23:33;12.83;;;6.33;;
15358;SDS011;7779;49.596;11.070;2022-12-18T00:26:01;11.73;;;7.17;;
15358;SDS011;7779;49.596;11.070;2022-12-18T00:28:30;14.87;;;7.50;;
15358;SDS011;7779;49.596;11.070;2022-12-18T00:31:02;15.67;;;7.63;;
15358;SDS011;7779;49.596;11.070;2022-12-18T00:33:32;10.90;;;6.93;;
15358;SDS011;7779;49.596;11.070;2022-12-18T00:36:09;14.43;;;7.47;;
15358;SDS011;7779;49.596;11.070;2022-12-18T00:38:45;12.13;;;6.63;;
15358;SDS011;7779;49.596;11.070;2022-12-18T00:41:12;10.93;;;6.90;;
15358;SDS011;7779;49.596;11.070;2022-12-18T00:44:00;12.80;;;6.87;;
15358;SDS011;7779;49.596;11.070;2022-12-18T00:46:26;12.17;;;7.00;;
15358;SDS011;7779;49.596;11.070;2022-12-18T00:48:52;11.03;;;7.00;;
15358;SDS011;7779;49.596;11.070;2022-12-18T00:51:18;12.87;;;6.90;;
15358;SDS011;7779;49.596;11.070;2022-12-18T00:53:44;10.70;;;6.23;;
15358;SDS011;7779;49.596;11.070;2022-12-18T00:56:09;15.10;;;7.13;;
15358;SDS011;7779;49.596;11.070;2022-12-18T00:58:35;13.77;;;7.10;;
15358;SDS011;7779;49.596;11.070;2022-12-18T01:01:03;11.60;;;6.40;;
15358;SDS011;7779;49.596;11.070;2022-12-18T01:03:33;11.67;;;7.10;;
15358;SDS011;7779;49.596;11.070;2022-12-18T01:05:59;11.37;;;6.83;;
15358;SDS011;7779;49.596;11.070;2022-12-18T01:08:34;12.07;;;6.20;;
15358;SDS011;7779;49.596;11.070;2022-12-18T01:11:00;10.83;;;6.03;;
15358;SDS011;7779;49.596;11.070;2022-12-18T01:13:36;13.67;;;6.30;;
15358;SDS011;7779;49.596;11.070;2022-12-18T01:16:01;11.53;;;6.50;;
15358;SDS011;7779;49.596;11.070;2022-12-18T01:18:27;10.50;;;6.23;;
15358;SDS011;7779;49.596;11.070;2022-12-18T01:20:53;11.33;;;6.80;;
15358;SDS011;7779;49.596;11.070;2022-12-18T01:23:18;9.57;;;5.73;;
15358;SDS011;7779;49.596;11.070;2022-12-18T01:25:44;11.60;;;6.43;;
15358;SDS011;7779;49.596;11.070;2022-12-18T01:28:10;12.70;;;5.97;;
15358;SDS011;7779;49.596;11.070;2022-12-18T01:30:36;9.40;;;5.30;;
15358;SDS011;7779;49.596;11.070;2022-12-18T01:33:03;10.27;;;5.57;;
15358;SDS011;7779;49.596;11.070;2022-12-18T01:35:30;11.37;;;5.87;;
15358;SDS011;7779;49.596;11.070;2022-12-18T01:37:56;9.90;;;5.63;;
15358;SDS011;7779;49.596;11.070;2022-12-18T01:40:22;8.00;;;5.90;;
15358;SDS011;7779;49.596;11.070;2022-12-18T01:42:53;9.13;;;4.87;;
15358;SDS011;7779;49.596;11.070;2022-12-18T01:47:53;11.20;;;6.07;;
15358;SDS011;7779;49.596;11.070;2022-12-18T01:50:25;11.93;;;6.33;;
15358;SDS011;7779;49.596;11.070;2022-12-18T01:53:13;7.53;;;5.23;;
15358;SDS011;7779;49.596;11.070;2022-12-18T01:55:48;8.80;;;5.17;;
15358;SDS011;7779;49.596;11.070;2022-12-18T01:58:28;12.20;;;6.03;;
15358;SDS011;7779;49.596;11.070;2022-12-18T02:01:19;11.20;;;5.97;;
15358;SDS011;7779;49.596;11.070;2022-12-18T02:03:48;9.97;;;6.20;;
15358;SDS011;7779;49.596;11.070;2022-12-18T02:06:26;11.63;;;6.17;;
15358;SDS011;7779;49.596;11.070;2022-12-18T02:09:09;9.20;;;6.00;;
15358;SDS011;7779;49.596;11.070;2022-12-18T02:15:02;12.53;;;6.27;;
15358;SDS011;7779;49.596;11.070;2022-12-18T02:17:37;10.17;;;6.07;;
15358;SDS011;7779;49.596;11.070;2022-12-18T02:20:47;8.70;;;5.37;;
15358;SDS011;7779;49.596;11.070;2022-12-18T02:23:56;9.37;;;5.67;;
15358;SDS011;7779;49.596;11.070;2022-12-18T02:26:55;6.97;;;4.10;;
15358;SDS011;7779;49.596;11.070;2022-12-18T02:29:31;12.83;;;6.47;;
15358;SDS011;7779;49.596;11.070;2022-12-18T02:32:13;11.07;;;5.97;;
15358;SDS011;7779;49.596;11.070;2022-12-18T02:34:44;13.23;;;6.00;;
15358;SDS011;7779;49.596;11.070;2022-12-18T02:37:15;9.77;;;5.10;;
15358;SDS011;7779;49.596;11.070;2022-12-18T02:39:48;11.03;;;6.07;;
15358;SDS011;7779;49.596;11.070;2022-12-18T02:42:19;8.53;;;4.73;;
15358;SDS011;7779;49.596;11.070;2022-12-18T02:44:48;9.83;;;4.93;;
15358;SDS011;7779;49.596;11.070;2022-12-18T02:47:20;10.97;;;5.87;;
15358;SDS011;7779;49.596;11.070;2022-12-18T02:53:17;9.00;;;4.70;;
15358;SDS011;7779;49.596;11.070;2022-12-18T02:55:59;9.70;;;4.67;;
15358;SDS011;7779;49.596;11.070;2022-12-18T02:58:54;8.33;;;5.07;;
15358;SDS011;7779;49.596;11.070;2022-12-18T03:04:16;7.57;;;4.40;;
15358;SDS011;7779;49.596;11.070;2022-12-18T03:06:49;8.57;;;4.67;;
15358;SDS011;7779;49.596;11.070;2022-12-18T03:09:28;9.10;;;5.10;;
15358;SDS011;7779;49.596;11.070;2022-12-18T03:17:35;10.93;;;5.00;;
15358;SDS011;7779;49.596;11.070;2022-12-18T03:20:07;8.57;;;5.17;;
15358;SDS011;7779;49.596;11.070;2022-12-18T03:22:39;9.83;;;5.00;;
15358;SDS011;7779;49.596;11.070;2022-12-18T03:25:13;9.30;;;5.87;;
15358;SDS011;7779;49.596;11.070;2022-12-18T03:27:46;9.83;;;5.40;;
15358;SDS011;7779;49.596;11.070;2022-12-18T03:30:19;12.27;;;5.77;;
15358;SDS011;7779;49.596;11.070;2022-12-18T03:32:50;10.07;;;5.53;;
15358;SDS011;7779;49.596;11.070;2022-12-18T03:35:49;9.83;;;5.87;;
15358;SDS011;7779;49.596;11.070;2022-12-18T03:38:17;7.30;;;4.60;;
15358;SDS011;7779;49.596;11.070;2022-12-18T03:40:50;7.50;;;4.43;;
15358;SDS011;7779;49.596;11.070;2022-12-18T03:46:25;6.77;;;4.43;;
15358;SDS011;7779;49.596;11.070;2022-12-18T03:49:06;8.97;;;4.33;;
15358;SDS011;7779;49.596;11.070;2022-12-18T03:51:54;8.50;;;4.57;;
15358;SDS011;7779;49.596;11.070;2022-12-18T03:54:37;8.53;;;4.53;;
15358;SDS011;7779;49.596;11.070;2022-12-18T03:57:13;8.47;;;4.77;;
15358;SDS011;7779;49.596;11.070;2022-12-18T03:59:46;9.13;;;4.87;;
15358;SDS011;7779;49.596;11.070;2022-12-18T04:02:23;8.30;;;4.60;;
15358;SDS011;7779;49.596;11.070;2022-12-18T04:04:53;8.83;;;4.90;;
15358;SDS011;7779;49.596;11.070;2022-12-18T04:07:24;8.17;;;4.90;;
15358;SDS011;7779;49.596;11.070;2022-12-18T04:09:51;10.33;;;5.20;;
15358;SDS011;7779;49.596;11.070;2022-12-18T04:12:25;8.53;;;5.03;;
15358;SDS011;7779;49.596;11.070;2022-12-18T04:14:55;10.20;;;5.80;;
15358;SDS011;7779;49.596;11.070;2022-12-18T04:17:21;11.97;;;6.17;;
15358;SDS011;7779;49.596;11.070;2022-12-18T04:19:48;12.17;;;6.47;;
15358;SDS011;7779;49.596;11.070;2022-12-18T04:22:15;10.20;;;5.17;;
15358;SDS011;7779;49.596;11.070;2022-12-18T04:24:45;8.47;;;4.60;;
15358;SDS011;7779;49.596;11.070;2022-12-18T04:27:19;8.77;;;5.13;;
15358;SDS011;7779;49.596;11.070;2022-12-18T04:29:48;10.77;;;6.10;;
15358;SDS011;7779;49.596;11.070;2022-12-18T04:32:17;13.47;;;6.80;;
15358;SDS011;7779;49.596;11.070;2022-12-18T04:34:43;8.87;;;5.53;;
15358;SDS011;7779;49.596;11.070;2022-12-18T04:37:09;11.77;;;5.30;;
15358;SDS011;7779;49.596;11.070;2022-12-18T04:39:36;11.77;;;5.53;;
15358;SDS011;7779;49.596;11.070;2022-12-18T04:42:08;10.77;;;5.47;;
15358;SDS011;7779;49.596;11.070;2022-12-18T04:44:33;10.97;;;6.33;;
15358;SDS011;7779;49.596;11.070;2022-12-18T04:46:59;10.17;;;5.77;;
15358;SDS011;7779;49.596;11.070;2022-12-18T04:49:25;9.50;;;5.30;;
15358;SDS011;7779;49.596;11.070;2022-12-18T04:51:50;9.27;;;5.60;;
15358;SDS011;7779;49.596;11.070;2022-12-18T04:54:16;10.33;;;6.00;;
15358;SDS011;7779;49.596;11.070;2022-12-18T04:56:42;11.43;;;5.53;;
15358;SDS011;7779;49.596;11.070;2022-12-18T04:59:08;10.53;;;5.40;;
15358;SDS011;7779;49.596;11.070;2022-12-18T05:01:33;12.03;;;5.50;;
15358;SDS011;7779;49.596;11.070;2022-12-18T05:03:59;9.07;;;5.50;;
15358;SDS011;7779;49.596;11.070;2022-12-18T05:06:26;9.47;;;5.20;;
15358;SDS011;7779;49.596;11.070;2022-12-18T05:08:51;11.53;;;5.30;;
15358;SDS011;7779;49.596;11.070;2022-12-18T05:11:17;8.97;;;5.30;;
15358;SDS011;7779;49.596;11.070;2022-12-18T05:13:43;8.47;;;5.90;;
15358;SDS011;7779;49.596;11.070;2022-12-18T05:16:11;11.47;;;5.83;;
15358;SDS011;7779;49.596;11.070;2022-12-18T05:18:38;9.37;;;5.77;;
15358;SDS011;7779;49.596;11.070;2022-12-18T05:21:04;11.93;;;6.33;;
15358;SDS011;7779;49.596;11.070;2022-12-18T05:23:30;11.33;;;5.80;;
15358;SDS011;7779;49.596;11.070;2022-12-18T05:26:01;11.30;;;5.83;;
15358;SDS011;7779;49.596;11.070;2022-12-18T05:28:30;11.80;;;5.90;;
15358;SDS011;7779;49.596;11.070;2022-12-18T05:30:59;9.40;;;5.53;;
15358;SDS011;7779;49.596;11.070;2022-12-18T05:33:29;9.67;;;5.37;;
15358;SDS011;7779;49.596;11.070;2022-12-18T05:35:59;8.80;;;5.57;;
15358;SDS011;7779;49.596;11.070;2022-12-18T05:38:32;8.00;;;4.93;;
15358;SDS011;7779;49.596;11.070;2022-12-18T05:41:01;10.87;;;5.70;;
15358;SDS011;7779;49.596;11.070;2022-12-18T05:43:27;8.37;;;4.83;;
15358;SDS011;7779;49.596;11.070;2022-12-18T05:45:54;11.00;;;5.80;;
15358;SDS011;7779;49.596;11.070;2022-12-18T05:48:21;9.77;;;5.37;;
15358;SDS011;7779;49.596;11.070;2022-12-18T05:50:47;8.40;;;5.23;;
15358;SDS011;7779;49.596;11.070;2022-12-18T05:53:16;9.87;;;6.27;;
15358;SDS011;7779;49.596;11.070;2022-12-18T05:55:44;13.23;;;6.87;;
15358;SDS011;7779;49.596;11.070;2022-12-18T05:58:11;11.40;;;6.47;;
15358;SDS011;7779;49.596;11.070;2022-12-18T06:00:39;13.37;;;6.53;;
15358;SDS011;7779;49.596;11.070;2022-12-18T06:03:08;9.83;;;6.30;;
15358;SDS011;7779;49.596;11.070;2022-12-18T06:05:40;11.20;;;6.53;;
15358;SDS011;7779;49.596;11.070;2022-12-18T06:08:09;12.10;;;7.63;;
15358;SDS011;7779;49.596;11.070;2022-12-18T06:10:35;12.53;;;6.87;;
15358;SDS011;7779;49.596;11.070;2022-12-18T06:13:03;13.33;;;7.33;;
15358;SDS011;7779;49.596;11.070;2022-12-18T06:15:30;14.13;;;8.20;;
15358;SDS011;7779;49.596;11.070;2022-12-18T06:17:56;12.73;;;7.40;;
15358;SDS011;7779;49.596;11.070;2022-12-18T06:20:22;13.50;;;7.63;;
15358;SDS011;7779;49.596;11.070;2022-12-18T06:22:48;13.70;;;7.87;;
15358;SDS011;7779;49.596;11.070;2022-12-18T06:25:14;14.33;;;7.87;;
15358;SDS011;7779;49.596;11.070;2022-12-18T06:27:40;16.33;;;9.17;;
15358;SDS011;7779;49.596;11.070;2022-12-18T06:30:06;14.97;;;8.07;;
15358;SDS011;7779;49.596;11.070;2022-12-18T06:32:33;15.63;;;8.53;;
15358;SDS011;7779;49.596;11.070;2022-12-18T06:34:58;16.13;;;8.63;;
15358;SDS011;7779;49.596;11.070;2022-12-18T06:37:24;15.30;;;8.67;;
15358;SDS011;7779;49.596;11.070;2022-12-18T06:39:51;13.03;;;7.90;;
15358;SDS011;7779;49.596;11.070;2022-12-18T06:42:18;13.40;;;8.23;;
15358;SDS011;7779;49.596;11.070;2022-12-18T06:44:43;13.83;;;7.23;;
15358;SDS011;7779;49.596;11.070;2022-12-18T06:47:09;14.80;;;8.17;;
15358;SDS011;7779;49.596;11.070;2022-12-18T06:49:35;13.83;;;7.33;;
15358;SDS011;7779;49.596;11.070;2022-12-18T06:52:01;36.33;;;18.53;;
15358;SDS011;7779;49.596;11.070;2022-12-18T06:54:27;22.83;;;11.53;;
15358;SDS011;7779;49.596;11.070;2022-12-18T06:56:52;17.83;;;10.23;;
15358;SDS011;7779;49.596;11.070;2022-12-18T06:59:18;15.90;;;8.27;;
15358;SDS011;7779;49.596;11.070;2022-12-18T07:01:44;15.93;;;8.90;;
15358;SDS011;7779;49.596;11.070;2022-12-18T07:04:10;15.17;;;8.87;;
15358;SDS011;7779;49.596;11.070;2022-12-18T07:06:35;15.93;;;8.00;;
15358;SDS011;7779;49.596;11.070;2022-12-18T07:09:01;14.43;;;7.63;;
15358;SDS011;7779;49.596;11.070;2022-12-18T07:11:27;15.50;;;8.77;;
15358;SDS011;7779;49.596;11.070;2022-12-18T07:13:52;15.53;;;8.73;;
15358;SDS011;7779;49.596;11.070;2022-12-18T07:16:19;17.37;;;9.10;;
15358;SDS011;7779;49.596;11.070;2022-12-18T07:18:46;15.17;;;8.07;;
15358;SDS011;7779;49.596;11.070;2022-12-18T07:21:13;19.50;;;9.70;;
15358;SDS011;7779;49.596;11.070;2022-12-18T07:23:43;15.70;;;9.17;;
15358;SDS011;7779;49.596;11.070;2022-12-18T07:26:10;16.00;;;9.33;;
15358;SDS011;7779;49.596;11.070;2022-12-18T07:28:38;14.07;;;8.37;;
15358;SDS011;7779;49.596;11.070;2022-12-18T07:31:06;15.90;;;8.70;;
15358;SDS011;7779;49.596;11.070;2022-12-18T07:33:36;17.87;;;9.77;;
15358;SDS011;7779;49.596;11.070;2022-12-18T07:36:03;17.70;;;10.27;;
15358;SDS011;7779;49.596;11.070;2022-12-18T07:38:32;16.53;;;9.60;;
15358;SDS011;7779;49.596;11.070;2022-12-18T07:41:03;16.23;;;9.30;;
15358;SDS011;7779;49.596;11.070;2022-12-18T07:43:32;15.70;;;9.03;;
15358;SDS011;7779;49.596;11.070;2022-12-18T07:45:59;18.00;;;9.53;;
15358;SDS011;7779;49.596;11.070;2022-12-18T07:48:25;15.03;;;9.37;;
15358;SDS011;7779;49.596;11.070;2022-12-18T07:50:51;16.33;;;9.43;;
15358;SDS011;7779;49.596;11.070;2022-12-18T07:53:17;18.67;;;9.97;;
15358;SDS011;7779;49.596;11.070;2022-12-18T07:55:43;19.07;;;10.03;;
15358;SDS011;7779;49.596;11.070;2022-12-18T07:58:08;17.20;;;9.40;;
15358;SDS011;7779;49.596;11.070;2022-12-18T08:00:34;18.30;;;9.87;;
15358;SDS011;7779;49.596;11.070;2022-12-18T08:03:00;18.97;;;9.93;;
15358;SDS011;7779;49.596;11.070;2022-12-18T08:05:26;15.63;;;9.13;;
15358;SDS011;7779;49.596;11.070;2022-12-18T08:07:54;17.90;;;10.00;;
15358;SDS011;7779;49.596;11.070;2022-12-18T08:10:21;18.37;;;11.03;;
15358;SDS011;7779;49.596;11.070;2022-12-18T08:12:50;17.47;;;9.53;;
15358;SDS011;7779;49.596;11.070;2022-12-18T08:15:17;15.17;;;9.73;;
15358;SDS011;7779;49.596;11.070;2022-12-18T08:17:42;18.00;;;9.60;;
15358;SDS011;7779;49.596;11.070;2022-12-18T08:20:08;18.13;;;10.37;;
15358;SDS011;7779;49.596;11.070;2022-12-18T08:22:35;18.40;;;10.17;;
15358;SDS011;7779;49.596;11.070;2022-12-18T08:25:00;15.97;;;9.53;;
15358;SDS011;7779;49.596;11.070;2022-12-18T08:27:27;14.83;;;9.23;;
15358;SDS011;7779;49.596;11.070;2022-12-18T08:29:53;16.33;;;9.20;;
15358;SDS011;7779;49.596;11.070;2022-12-18T08:32:19;15.07;;;9.70;;
15358;SDS011;7779;49.596;11.070;2022-12-18T08:34:44;16.70;;;10.00;;
15358;SDS011;7779;49.596;11.070;2022-12-18T08:37:10;15.00;;;9.23;;
15358;SDS011;7779;49.596;11.070;2022-12-18T08:39:36;17.63;;;10.77;;
15358;SDS011;7779;49.596;11.070;2022-12-18T08:42:02;15.83;;;9.53;;
15358;SDS011;7779;49.596;11.070;2022-12-18T08:44:46;16.10;;;9.77;;
15358;SDS011;7779;49.596;11.070;2022-12-18T08:47:12;16.17;;;9.60;;
15358;SDS011;7779;49.596;11.070;2022-12-18T08:49:37;16.10;;;9.37;;
15358;SDS011;7779;49.596;11.070;2022-12-18T08:52:03;16.13;;;9.90;;
15358;SDS011;7779;49.596;11.070;2022-12-18T08:54:29;18.13;;;10.33;;
15358;SDS011;7779;49.596;11.070;2022-12-18T08:56:55;16.77;;;10.20;;
15358;SDS011;7779;49.596;11.070;2022-12-18T08:59:20;16.57;;;10.23;;
15358;SDS011;7779;49.596;11.070;2022-12-18T09:01:48;18.93;;;10.00;;
15358;SDS011;7779;49.596;11.070;2022-12-18T09:04:14;20.50;;;10.87;;
15358;SDS011;7779;49.596;11.070;2022-12-18T09:06:40;16.63;;;10.13;;
15358;SDS011;7779;49.596;11.070;2022-12-18T09:09:05;18.73;;;11.13;;
15358;SDS011;7779;49.596;11.070;2022-12-18T09:11:33;15.87;;;9.93;;
15358;SDS011;7779;49.596;11.070;2022-12-18T09:13:59;18.53;;;10.70;;
15358;SDS011;7779;49.596;11.070;2022-12-18T09:16:26;18.50;;;10.60;;
15358;SDS011;7779;49.596;11.070;2022-12-18T09:18:56;18.07;;;9.83;;
15358;SDS011;7779;49.596;11.070;2022-12-18T09:21:25;18.70;;;10.23;;
15358;SDS011;7779;49.596;11.070;2022-12-18T09:23:54;16.53;;;10.10;;
15358;SDS011;7779;49.596;11.070;2022-12-18T09:26:21;15.70;;;10.27;;
15358;SDS011;7779;49.596;11.070;2022-12-18T09:28:49;16.73;;;9.87;;
15358;SDS011;7779;49.596;11.070;2022-12-18T09:31:16;17.40;;;10.33;;
15358;SDS011;7779;49.596;11.070;2022-12-18T09:33:44;16.20;;;10.30;;
15358;SDS011;7779;49.596;11.070;2022-12-18T09:36:11;18.23;;;10.40;;
15358;SDS011;7779;49.596;11.070;2022-12-18T09:38:40;15.83;;;9.60;;
15358;SDS011;7779;49.596;11.070;2022-12-18T09:41:26;18.37;;;10.17;;
15358;SDS011;7779;49.596;11.070;2022-12-18T09:47:02;16.40;;;10.37;;
15358;SDS011;7779;49.596;11.070;2022-12-18T09:49:53;18.97;;;11.07;;
15358;SDS011;7779;49.596;11.070;2022-12-18T09:52:33;17.50;;;11.07;;
15358;SDS011;7779;49.596;11.070;2022-12-18T10:00:41;19.17;;;10.77;;
15358;SDS011;7779;49.596;11.070;2022-12-18T10:03:14;19.10;;;10.80;;
15358;SDS011;7779;49.596;11.070;2022-12-18T10:08:37;20.20;;;11.27;;
15358;SDS011;7779;49.596;11.070;2022-12-18T10:13:56;17.37;;;10.40;;
15358;SDS011;7779;49.596;11.070;2022-12-18T10:25:03;18.47;;;10.30;;
15358;SDS011;7779;49.596;11.070;2022-12-18T10:27:39;18.20;;;11.57;;
15358;SDS011;7779;49.596;11.070;2022-12-18T10:30:12;20.00;;;12.63;;
15358;SDS011;7779;49.596;11.070;2022-12-18T10:32:46;17.43;;;10.53;;
15358;SDS011;7779;49.596;11.070;2022-12-18T10:35:18;19.00;;;11.13;;
15358;SDS011;7779;49.596;11.070;2022-12-18T10:46:11;18.13;;;10.47;;
15358;SDS011;7779;49.596;11.070;2022-12-18T10:51:21;16.67;;;9.97;;
15358;SDS011;7779;49.596;11.070;2022-12-18T10:56:31;18.17;;;10.67;;
15358;SDS011;7779;49.596;11.070;2022-12-18T10:59:05;16.07;;;9.37;;
15358;SDS011;7779;49.596;11.070;2022-12-18T11:01:47;15.73;;;10.10;;
15358;SDS011;7779;49.596;11.070;2022-12-18T11:04:22;14.73;;;10.20;;
15358;SDS011;7779;49.596;11.070;2022-12-18T11:07:05;17.17;;;10.50;;
15358;SDS011;7779;49.596;11.070;2022-12-18T11:09:34;17.67;;;11.27;;
15358;SDS011;7779;49.596;11.070;2022-12-18T11:12:23;17.40;;;10.53;;
15358;SDS011;7779;49.596;11.070;2022-12-18T11:14:49;16.50;;;9.63;;
15358;SDS011;7779;49.596;11.070;2022-12-18T11:17:22;16.97;;;9.33;;
15358;SDS011;7779;49.596;11.070;2022-12-18T11:20:02;17.93;;;10.33;;
15358;SDS011;7779;49.596;11.070;2022-12-18T11:22:54;16.13;;;10.13;;
15358;SDS011;7779;49.596;11.070;2022-12-18T11:25:23;18.23;;;10.03;;
15358;SDS011;7779;49.596;11.070;2022-12-18T11:33:06;14.47;;;9.63;;
15358;SDS011;7779;49.596;11.070;2022-12-18T11:35:52;16.53;;;9.60;;
15358;SDS011;7779;49.596;11.070;2022-12-18T11:43:31;15.33;;;9.07;;
15358;SDS011;7779;49.596;11.070;2022-12-18T11:46:17;14.63;;;10.00;;
15358;SDS011;7779;49.596;11.070;2022-12-18T11:49:14;15.13;;;9.47;;
15358;SDS011;7779;49.596;11.070;2022-12-18T11:55:04;16.47;;;8.90;;
15358;SDS011;7779;49.596;11.070;2022-12-18T12:00:30;17.00;;;9.30;;
15358;SDS011;7779;49.596;11.070;2022-12-18T12:08:33;14.10;;;8.73;;
15358;SDS011;7779;49.596;11.070;2022-12-18T12:11:35;14.30;;;9.00;;
15358;SDS011;7779;49.596;11.070;2022-12-18T12:14:35;15.90;;;9.27;;
15358;SDS011;7779;49.596;11.070;2022-12-18T12:23:45;15.97;;;9.47;;
15358;SDS011;7779;49.596;11.070;2022-12-18T12:26:29;17.07;;;10.73;;
15358;SDS011;7779;49.596;11.070;2022-12-18T12:29:19;19.13;;;11.40;;
15358;SDS011;7779;49.596;11.070;2022-12-18T12:32:29;15.90;;;9.67;;
15358;SDS011;7779;49.596;11.070;2022-12-18T12:41:03;13.90;;;9.43;;
15358;SDS011;7779;49.596;11.070;2022-12-18T12:43:55;13.80;;;8.63;;
15358;SDS011;7779;49.596;11.070;2022-12-18T12:46:27;16.27;;;9.90;;
15358;SDS011;7779;49.596;11.070;2022-12-18T12:49:02;14.23;;;9.73;;
15358;SDS011;7779;49.596;11.070;2022-12-18T12:51:35;19.00;;;9.83;;
15358;SDS011;7779;49.596;11.070;2022-12-18T12:54:06;16.40;;;10.30;;
15358;SDS011;7779;49.596;11.070;2022-12-18T12:56:49;19.97;;;10.80;;
15358;SDS011;7779;49.596;11.070;2022-12-18T12:59:37;15.20;;;9.17;;
15358;SDS011;7779;49.596;11.070;2022-12-18T13:05:43;14.47;;;8.73;;
15358;SDS011;7779;49.596;11.070;2022-12-18T13:08:22;14.40;;;8.77;;
15358;SDS011;7779;49.596;11.070;2022-12-18T13:10:54;14.27;;;8.63;;
15358;SDS011;7779;49.596;11.070;2022-12-18T13:13:48;15.30;;;9.10;;
15358;SDS011;7779;49.596;11.070;2022-12-18T13:16:23;15.50;;;9.33;;
15358;SDS011;7779;49.596;11.070;2022-12-18T13:18:56;13.07;;;8.40;;
15358;SDS011;7779;49.596;11.070;2022-12-18T13:23:55;15.37;;;9.50;;
15358;SDS011;7779;49.596;11.070;2022-12-18T13:26:38;14.00;;;8.80;;
15358;SDS011;7779;49.596;11.070;2022-12-18T13:29:04;13.40;;;8.47;;
15358;SDS011;7779;49.596;11.070;2022-12-18T13:34:19;16.13;;;9.67;;
15358;SDS011;7779;49.596;11.070;2022-12-18T13:36:49;14.03;;;9.17;;
15358;SDS011;7779;49.596;11.070;2022-12-18T13:41:46;16.43;;;10.60;;
15358;SDS011;7779;49.596;11.070;2022-12-18T13:44:58;18.27;;;10.13;;
15358;SDS011;7779;49.596;11.070;2022-12-18T13:50:00;14.77;;;9.07;;
15358;SDS011;7779;49.596;11.070;2022-12-18T13:52:36;16.83;;;9.33;;
15358;SDS011;7779;49.596;11.070;2022-12-18T13:55:05;15.83;;;8.97;;
15358;SDS011;7779;49.596;11.070;2022-12-18T13:57:41;14.03;;;8.53;;
15358;SDS011;7779;49.596;11.070;2022-12-18T14:02:49;15.60;;;8.93;;
15358;SDS011;7779;49.596;11.070;2022-12-18T14:05:22;13.60;;;8.37;;
15358;SDS011;7779;49.596;11.070;2022-12-18T14:07:52;13.07;;;8.40;;
15358;SDS011;7779;49.596;11.070;2022-12-18T14:10:19;13.90;;;8.57;;
15358;SDS011;7779;49.596;11.070;2022-12-18T14:12:48;12.20;;;8.47;;
15358;SDS011;7779;49.596;11.070;2022-12-18T14:18:00;11.57;;;7.97;;
15358;SDS011;7779;49.596;11.070;2022-12-18T14:20:39;13.73;;;8.43;;
15358;SDS011;7779;49.596;11.070;2022-12-18T14:23:25;12.93;;;7.97;;
15358;SDS011;7779;49.596;11.070;2022-12-18T14:25:53;12.77;;;7.97;;
15358;SDS011;7779;49.596;11.070;2022-12-18T14:28:18;14.83;;;8.70;;
15358;SDS011;7779;49.596;11.070;2022-12-18T14:30:46;14.87;;;9.20;;
15358;SDS011;7779;49.596;11.070;2022-12-18T14:35:55;11.57;;;8.47;;
15358;SDS011;7779;49.596;11.070;2022-12-18T14:38:39;13.07;;;8.03;;
15358;SDS011;7779;49.596;11.070;2022-12-18T14:41:09;16.40;;;9.67;;
15358;SDS011;7779;49.596;11.070;2022-12-18T14:43:40;14.73;;;9.53;;
15358;SDS011;7779;49.596;11.070;2022-12-18T14:48:58;15.47;;;9.53;;
15358;SDS011;7779;49.596;11.070;2022-12-18T14:51:46;17.47;;;10.07;;
15358;SDS011;7779;49.596;11.070;2022-12-18T14:54:16;16.43;;;10.80;;
15358;SDS011;7779;49.596;11.070;2022-12-18T14:56:46;13.83;;;9.27;;
15358;SDS011;7779;49.596;11.070;2022-12-18T14:59:35;15.40;;;9.23;;
15358;SDS011;7779;49.596;11.070;2022-12-18T15:04:47;15.30;;;9.33;;
15358;SDS011;7779;49.596;11.070;2022-12-18T15:07:25;14.87;;;8.97;;
15358;SDS011;7779;49.596;11.070;2022-12-18T15:10:02;16.53;;;9.47;;
15358;SDS011;7779;49.596;11.070;2022-12-18T15:12:48;15.83;;;9.10;;
15358;SDS011;7779;49.596;11.070;2022-12-18T15:20:39;13.93;;;8.87;;
15358;SDS011;7779;49.596;11.070;2022-12-18T15:23:14;13.47;;;9.03;;
15358;SDS011;7779;49.596;11.070;2022-12-18T15:25:45;12.10;;;8.00;;
15358;SDS011;7779;49.596;11.070;2022-12-18T15:28:17;13.97;;;8.80;;
15358;SDS011;7779;49.596;11.070;2022-12-18T15:31:06;12.43;;;8.90;;
15358;SDS011;7779;49.596;11.070;2022-12-18T15:34:18;13.57;;;8.67;;
15358;SDS011;7779;49.596;11.070;2022-12-18T15:36:37;13.47;;;8.53;;
15358;SDS011;7779;49.596;11.070;2022-12-18T15:39:03;13.70;;;8.30;;
15358;SDS011;7779;49.596;11.070;2022-12-18T15:41:31;11.50;;;8.37;;
15358;SDS011;7779;49.596;11.070;2022-12-18T15:43:59;11.83;;;8.23;;
15358;SDS011;7779;49.596;11.070;2022-12-18T15:46:25;11.27;;;7.57;;
15358;SDS011;7779;49.596;11.070;2022-12-18T15:48:52;11.73;;;7.83;;
15358;SDS011;7779;49.596;11.070;2022-12-18T15:51:25;15.33;;;9.17;;
15358;SDS011;7779;49.596;11.070;2022-12-18T15:53:56;15.37;;;9.87;;
15358;SDS011;7779;49.596;11.070;2022-12-18T15:56:28;14.23;;;9.10;;
15358;SDS011;7779;49.596;11.070;2022-12-18T15:59:15;11.90;;;8.17;;
15358;SDS011;7779;49.596;11.070;2022-12-18T16:01:46;11.77;;;8.10;;
15358;SDS011;7779;49.596;11.070;2022-12-18T16:04:16;13.93;;;9.30;;
15358;SDS011;7779;49.596;11.070;2022-12-18T16:06:45;14.30;;;9.23;;
15358;SDS011;7779;49.596;11.070;2022-12-18T16:09:12;14.37;;;9.20;;
15358;SDS011;7779;49.596;11.070;2022-12-18T16:11:37;15.73;;;10.10;;
15358;SDS011;7779;49.596;11.070;2022-12-18T16:14:12;12.40;;;9.03;;
15358;SDS011;7779;49.596;11.070;2022-12-18T16:16:48;12.10;;;8.10;;
15358;SDS011;7779;49.596;11.070;2022-12-18T16:19:22;13.13;;;8.83;;
15358;SDS011;7779;49.596;11.070;2022-12-18T16:21:50;12.97;;;8.17;;
15358;SDS011;7779;49.596;11.070;2022-12-18T16:24:23;14.00;;;8.90;;
15358;SDS011;7779;49.596;11.070;2022-12-18T16:26:52;13.43;;;8.80;;
15358;SDS011;7779;49.596;11.070;2022-12-18T16:29:19;13.33;;;8.30;;
15358;SDS011;7779;49.596;11.070;2022-12-18T16:31:49;16.13;;;9.80;;
15358;SDS011;7779;49.596;11.070;2022-12-18T16:34:21;13.63;;;9.10;;
15358;SDS011;7779;49.596;11.070;2022-12-18T16:36:54;14.03;;;9.70;;
15358;SDS011;7779;49.596;11.070;2022-12-18T16:39:23;15.53;;;9.60;;
15358;SDS011;7779;49.596;11.070;2022-12-18T16:41:49;17.20;;;9.70;;
15358;SDS011;7779;49.596;11.070;2022-12-18T16:44:15;15.60;;;10.13;;
15358;SDS011;7779;49.596;11.070;2022-12-18T16:46:42;15.70;;;9.77;;
15358;SDS011;7779;49.596;11.070;2022-12-18T16:49:11;16.60;;;10.67;;
15358;SDS011;7779;49.596;11.070;2022-12-18T16:51:38;16.40;;;10.23;;
15358;SDS011;7779;49.596;11.070;2022-12-18T16:54:03;17.17;;;10.90;;
15358;SDS011;7779;49.596;11.070;2022-12-18T16:56:29;19.00;;;11.33;;
15358;SDS011;7779;49.596;11.070;2022-12-18T16:58:56;15.83;;;10.60;;
15358;SDS011;7779;49.596;11.070;2022-12-18T17:01:25;16.63;;;10.47;;
15358;SDS011;7779;49.596;11.070;2022-12-18T17:04:00;16.23;;;10.23;;